Time;durP1;ratioP1;P1;durP2;ratioP2;P2;SDS_P1;SDS_P2;PMS_P1;PMS_P2;Temp;Humidity;BMP_temperature;BMP_pressure;BME280_temperature;BME280_humidity;BME280_pressure;Samples;Min_cycle;Max_cycle;Signal;HPM_P1;HPM_P2
2023/12/18 00:00:30;;;;;;;5.53;3.08;;;;;;;7.96;93.00;102327.66;7390867;19;20360;-76
2023/12/18 00:02:57;;;;;;;4.88;2.92;;;;;;;7.94;92.78;102329.56;7395421;19;20384;-76
2023/12/18 00:05:24;;;;;;;6.10;3.20;;;;;;;7.92;92.82;102328.00;7391685;19;20435;-76
2023/12/18 00:07:51;;;;;;;3.95;2.65;;;;;;;7.89;92.98;102328.25;7393810;19;20353;-76
2023/12/18 00:10:18;;;;;;;5.23;2.90;;;;;;;7.88;92.67;102323.91;7392006;19;20428;-76
2023/12/18 00:12:45;;;;;;;4.05;2.70;;;;;;;7.83;92.66;102336.66;7391021;19;20447;-76
2023/12/18 00:15:12;;;;;;;4.88;2.90;;;;;;;7.76;93.14;102337.09;7393519;19;20365;-78
2023/12/18 00:17:39;;;;;;;4.22;2.50;;;;;;;7.72;93.38;102329.53;7391793;19;20356;-77
2023/12/18 00:20:06;;;;;;;5.88;2.80;;;;;;;7.69;93.54;102329.75;7388849;19;20343;-76
2023/12/18 00:22:33;;;;;;;4.80;2.80;;;;;;;7.66;93.39;102333.47;7387140;19;20707;-76
2023/12/18 00:25:00;;;;;;;6.20;2.67;;;;;;;7.64;93.26;102331.91;7394014;19;20361;-77
2023/12/18 00:27:27;;;;;;;6.38;2.67;;;;;;;7.61;93.36;102332.13;7393886;19;20356;-76
2023/12/18 00:29:53;;;;;;;4.97;2.83;;;;;;;7.59;93.50;102329.63;7391983;19;20344;-77
2023/12/18 00:32:20;;;;;;;4.63;3.13;;;;;;;7.55;93.59;102331.63;7389975;19;20332;-77
2023/12/18 00:34:47;;;;;;;5.15;2.90;;;;;;;7.53;93.46;102330.06;7392119;19;20388;-77
2023/12/18 00:37:14;;;;;;;5.22;2.92;;;;;;;7.50;93.52;102332.94;7391510;19;20374;-76
2023/12/18 00:39:41;;;;;;;4.53;2.63;;;;;;;7.47;93.66;102341.09;7391566;19;20387;-77
2023/12/18 00:42:07;;;;;;;5.45;2.70;;;;;;;7.46;93.74;102340.25;7391439;19;20369;-77
2023/12/18 00:44:34;;;;;;;6.22;3.10;;;;;;;7.49;93.53;102350.56;7390975;19;20361;-77
2023/12/18 00:47:02;;;;;;;6.05;2.80;;;;;;;7.57;93.18;102342.09;7388625;19;20316;-77
2023/12/18 00:49:32;;;;;;;7.00;2.90;;;;;;;7.62;92.72;102342.59;7388288;19;20373;-77
2023/12/18 00:52:00;;;;;;;5.97;3.17;;;;;;;7.73;92.08;102337.31;7393457;19;20341;-76
2023/12/18 00:54:27;;;;;;;4.93;3.20;;;;;;;7.81;91.70;102338.56;7391984;19;20432;-77
2023/12/18 00:56:54;;;;;;;6.78;3.13;;;;;;;7.88;91.02;102335.31;7393893;19;20368;-76
2023/12/18 00:59:20;;;;;;;6.20;3.30;;;;;;;7.91;90.50;102337.75;7394243;19;20345;-76
2023/12/18 01:01:47;;;;;;;6.60;2.97;;;;;;;7.92;90.55;102330.66;7390273;19;20349;-76
2023/12/18 01:04:14;;;;;;;5.63;3.28;;;;;;;7.90;90.07;102336.03;7393721;19;20399;-77
2023/12/18 01:06:41;;;;;;;4.95;3.20;;;;;;;7.86;90.10;102347.84;7391106;19;20374;-77
2023/12/18 01:09:08;;;;;;;6.68;3.45;;;;;;;7.84;90.01;102349.75;7388927;19;20367;-77
2023/12/18 01:11:35;;;;;;;7.82;3.90;;;;;;;7.79;90.51;102346.59;7391141;19;20803;-76
2023/12/18 01:14:02;;;;;;;8.27;3.97;;;;;;;7.80;90.30;102347.44;7391932;19;20363;-77
2023/12/18 01:16:29;;;;;;;8.90;4.25;;;;;;;7.80;90.59;102340.38;7389722;19;20380;-76
2023/12/18 01:19:00;;;;;;;7.22;4.18;;;;;;;7.83;90.39;102348.03;7388327;19;20361;-77
2023/12/18 01:21:27;;;;;;;8.10;4.65;;;;;;;7.87;90.04;102356.59;7390979;19;20892;-77
2023/12/18 01:23:53;;;;;;;9.07;5.00;;;;;;;7.92;89.93;102351.78;7393907;19;20767;-77
2023/12/18 01:26:20;;;;;;;8.85;4.80;;;;;;;7.94;89.87;102350.72;7395177;19;20377;-77
2023/12/18 01:28:47;;;;;;;8.07;4.60;;;;;;;7.96;89.73;102343.50;7395867;19;20333;-77
2023/12/18 01:31:22;;;;;;;9.30;4.88;;;;;;;7.99;89.50;102342.47;7394627;19;20392;-77
2023/12/18 01:33:52;;;;;;;9.70;5.38;;;;;;;8.02;89.49;102342.22;7396259;19;20337;-77
2023/12/18 01:36:19;;;;;;;9.35;5.07;;;;;;;8.01;89.29;102344.94;7393218;19;20397;-77
2023/12/18 01:38:46;;;;;;;10.90;5.65;;;;;;;8.01;89.24;102339.66;7398322;19;20360;-76
2023/12/18 01:41:13;;;;;;;9.55;5.57;;;;;;;8.02;89.05;102346.66;7395826;19;20360;-76
2023/12/18 01:43:40;;;;;;;10.25;5.13;;;;;;;8.01;88.73;102343.19;7399748;19;20842;-77
2023/12/18 01:46:06;;;;;;;11.27;5.90;;;;;;;8.05;88.71;102341.13;7399282;19;20365;-77
2023/12/18 01:48:34;;;;;;;10.95;6.00;;;;;;;8.01;88.34;102351.09;7396436;19;20384;-77
2023/12/18 01:51:02;;;;;;;10.57;6.40;;;;;;;8.00;88.25;102359.97;7397229;19;20863;-78
2023/12/18 01:53:33;;;;;;;10.95;5.90;;;;;;;8.01;88.12;102351.09;7396946;19;20384;-77
2023/12/18 01:56:01;;;;;;;10.20;6.60;;;;;;;7.99;87.87;102345.09;7391996;19;20852;-77
2023/12/18 01:58:31;;;;;;;15.57;7.00;;;;;;;7.99;87.81;102347.75;7396429;19;20432;-77
2023/12/18 02:00:58;;;;;;;13.98;7.05;;;;;;;7.97;87.65;102344.38;7397478;19;20369;-76
2023/12/18 02:03:28;;;;;;;10.27;6.55;;;;;;;7.92;87.52;102338.56;7399431;19;21171;-77
2023/12/18 02:05:56;;;;;;;11.77;7.53;;;;;;;7.90;87.55;102333.41;7395146;19;20398;-77
2023/12/18 02:08:24;;;;;;;11.05;7.03;;;;;;;7.83;87.51;102326.06;7395363;19;20353;-78
2023/12/18 02:10:53;;;;;;;11.80;7.35;;;;;;;7.76;87.66;102329.19;7396789;19;20385;-77
2023/12/18 02:13:19;;;;;;;13.60;7.88;;;;;;;7.71;87.76;102317.28;7397674;19;20715;-76
2023/12/18 02:15:46;;;;;;;13.10;7.60;;;;;;;7.64;87.67;102319.53;7398396;19;20876;-77
2023/12/18 02:18:13;;;;;;;12.07;7.70;;;;;;;7.59;87.98;102311.13;7398124;19;20361;-77
2023/12/18 02:20:41;;;;;;;13.43;8.35;;;;;;;7.50;87.95;102304.75;7392675;19;20970;-76
2023/12/18 02:23:11;;;;;;;12.35;7.82;;;;;;;7.49;87.93;102297.75;7398785;19;20337;-76
2023/12/18 02:25:38;;;;;;;13.60;7.85;;;;;;;7.44;88.13;102304.34;7395639;19;20364;-78
2023/12/18 02:28:07;;;;;;;10.43;6.95;;;;;;;7.32;88.51;102291.09;7398351;19;20356;-77
2023/12/18 02:30:34;;;;;;;12.35;7.63;;;;;;;7.28;88.60;102300.22;7397337;19;20698;-77
2023/12/18 02:33:01;;;;;;;10.65;7.15;;;;;;;7.24;88.50;102308.47;7397701;19;20378;-77
2023/12/18 02:35:28;;;;;;;12.30;7.32;;;;;;;7.19;88.40;102310.63;7393595;19;20345;-77
2023/12/18 02:37:55;;;;;;;14.70;8.27;;;;;;;7.14;88.45;102305.69;7395961;19;20364;-76
2023/12/18 02:40:25;;;;;;;12.43;8.10;;;;;;;7.09;88.71;102313.06;7395842;19;20672;-77
2023/12/18 02:42:52;;;;;;;12.90;8.63;;;;;;;7.05;88.70;102315.09;7394901;19;20357;-77
2023/12/18 02:45:19;;;;;;;12.32;8.38;;;;;;;7.03;88.34;102317.00;7397354;19;20463;-77
2023/12/18 02:47:46;;;;;;;11.93;8.17;;;;;;;7.01;88.76;102315.44;7396126;19;20429;-77
2023/12/18 02:50:14;;;;;;;13.93;8.15;;;;;;;6.98;88.62;102307.75;7396689;19;20355;-77
2023/12/18 02:52:40;;;;;;;12.57;8.30;;;;;;;6.92;88.21;102304.59;7394675;19;20782;-77
2023/12/18 02:55:09;;;;;;;16.53;9.13;;;;;;;6.88;88.26;102307.56;7396104;19;20874;-77
2023/12/18 02:57:36;;;;;;;17.92;8.93;;;;;;;6.85;88.21;102303.38;7392667;19;20364;-77
2023/12/18 03:00:03;;;;;;;13.20;9.02;;;;;;;6.78;88.22;102320.59;7395447;19;20365;-77
2023/12/18 03:02:30;;;;;;;16.08;9.13;;;;;;;6.76;87.89;102293.47;7397596;19;20841;-77
2023/12/18 03:04:57;;;;;;;13.20;8.85;;;;;;;6.74;87.75;102305.94;7397587;19;20694;-76
2023/12/18 03:07:24;;;;;;;11.80;8.25;;;;;;;6.76;87.60;102292.63;7393441;19;20393;-76
2023/12/18 03:09:51;;;;;;;13.50;8.80;;;;;;;6.78;87.46;102293.34;7396050;19;20951;-77
2023/12/18 03:12:17;;;;;;;15.20;8.63;;;;;;;6.81;87.41;102301.91;7395174;19;20441;-77
2023/12/18 03:14:44;;;;;;;13.13;9.40;;;;;;;6.77;87.27;102297.78;7397557;19;20348;-76
2023/12/18 03:17:11;;;;;;;14.23;8.23;;;;;;;6.73;87.32;102304.25;7397693;19;20348;-77
2023/12/18 03:19:37;;;;;;;19.75;10.30;;;;;;;6.77;87.21;102292.50;7395002;19;20348;-77
2023/12/18 03:22:04;;;;;;;16.00;9.68;;;;;;;6.79;87.14;102293.25;7394685;19;20363;-77
2023/12/18 03:24:33;;;;;;;13.98;9.38;;;;;;;6.79;86.76;102297.69;7397046;19;20367;-76
2023/12/18 03:27:00;;;;;;;13.35;9.30;;;;;;;6.84;86.66;102293.78;7395138;19;20361;-76
2023/12/18 03:29:26;;;;;;;14.32;9.23;;;;;;;6.80;86.56;102300.22;7396517;19;20462;-76
2023/12/18 03:31:53;;;;;;;14.10;9.50;;;;;;;6.83;86.63;102317.63;7395471;19;20352;-76
2023/12/18 03:34:20;;;;;;;14.50;9.35;;;;;;;6.83;86.51;102300.00;7396423;19;20905;-76
2023/12/18 03:36:46;;;;;;;15.95;9.60;;;;;;;6.80;86.54;102307.28;7393015;19;20368;-76
2023/12/18 03:39:13;;;;;;;14.63;9.88;;;;;;;6.78;86.24;102288.94;7396681;19;20424;-76
2023/12/18 03:41:40;;;;;;;15.45;9.98;;;;;;;6.76;85.76;102319.84;7392093;19;20361;-76
2023/12/18 03:44:07;;;;;;;15.00;10.13;;;;;;;6.79;85.61;102287.97;7396732;19;20507;-77
2023/12/18 03:46:33;;;;;;;16.77;10.15;;;;;;;6.79;85.26;102287.97;7395150;19;20441;-76
2023/12/18 03:49:00;;;;;;;17.10;10.85;;;;;;;6.73;85.42;102289.25;7393999;19;20372;-76
2023/12/18 03:51:27;;;;;;;20.00;11.10;;;;;;;6.74;85.14;102272.50;7393807;19;20871;-78
2023/12/18 03:53:54;;;;;;;16.13;10.40;;;;;;;6.72;85.19;102260.38;7396571;19;20360;-76
2023/12/18 03:56:21;;;;;;;16.02;10.02;;;;;;;6.64;85.17;102268.00;7395995;19;20409;-77
2023/12/18 03:58:47;;;;;;;13.90;10.68;;;;;;;6.64;85.28;102278.53;7393936;19;20356;-76
2023/12/18 04:01:14;;;;;;;16.07;10.57;;;;;;;6.61;85.46;102274.34;7394967;19;20492;-78
2023/12/18 04:03:41;;;;;;;16.77;10.40;;;;;;;6.55;84.87;102277.41;7393853;19;20356;-76
2023/12/18 04:06:09;;;;;;;15.27;10.48;;;;;;;6.48;84.96;102277.00;7392784;19;20363;-77
2023/12/18 04:08:37;;;;;;;12.53;9.90;;;;;;;6.48;84.47;102282.28;7392532;19;20340;-76
2023/12/18 04:11:03;;;;;;;14.60;10.23;;;;;;;6.47;84.66;102274.47;7391511;19;20344;-77
2023/12/18 04:13:30;;;;;;;15.13;10.80;;;;;;;6.46;84.28;102263.09;7393606;19;20368;-77
2023/12/18 04:15:56;;;;;;;18.85;10.82;;;;;;;6.45;84.12;102273.72;7394783;19;20840;-76
2023/12/18 04:18:26;;;;;;;12.15;9.98;;;;;;;6.36;84.35;102292.84;7394491;19;20368;-76
2023/12/18 04:20:53;;;;;;;16.17;10.88;;;;;;;6.33;84.49;102275.44;7390088;19;20389;-77
2023/12/18 04:23:20;;;;;;;13.13;9.75;;;;;;;6.38;84.58;102272.50;7392575;19;20730;-76
2023/12/18 04:25:47;;;;;;;15.95;10.80;;;;;;;6.43;84.08;102276.47;7394429;19;20956;-76
2023/12/18 04:28:13;;;;;;;15.00;10.43;;;;;;;6.48;84.27;102290.19;7395119;19;20702;-76
2023/12/18 04:30:40;;;;;;;14.80;10.52;;;;;;;6.48;84.30;102289.31;7393254;19;20356;-76
2023/12/18 04:33:07;;;;;;;16.55;10.95;;;;;;;6.57;83.98;102285.19;7394658;19;20357;-76
2023/12/18 04:35:35;;;;;;;13.48;10.27;;;;;;;6.58;83.43;102287.72;7391247;19;20348;-77
2023/12/18 04:38:02;;;;;;;16.87;10.23;;;;;;;6.59;83.23;102272.72;7393736;19;20427;-77
2023/12/18 04:40:29;;;;;;;16.42;10.45;;;;;;;6.63;82.82;102274.19;7390859;19;20365;-77
2023/12/18 04:42:56;;;;;;;14.65;10.00;;;;;;;6.64;83.05;102282.00;7394222;19;20905;-77
2023/12/18 04:45:23;;;;;;;15.45;9.73;;;;;;;6.63;83.12;102279.47;7392439;19;20678;-76
2023/12/18 04:47:49;;;;;;;13.80;9.88;;;;;;;6.69;82.87;102276.41;7390518;19;20432;-76
2023/12/18 04:50:17;;;;;;;17.23;10.60;;;;;;;6.74;82.84;102284.84;7392256;19;20712;-77
2023/12/18 04:52:43;;;;;;;15.75;10.18;;;;;;;6.73;82.89;102275.22;7393271;19;20364;-76
2023/12/18 04:55:10;;;;;;;14.02;9.80;;;;;;;6.71;82.26;102291.16;7392047;19;20360;-76
2023/12/18 04:57:38;;;;;;;14.17;10.00;;;;;;;6.73;82.33;102286.59;7396335;19;20479;-78
2023/12/18 05:00:05;;;;;;;14.52;9.98;;;;;;;6.73;82.14;102298.97;7401670;19;20352;-78
2023/12/18 05:02:33;;;;;;;14.45;8.77;;;;;;;6.73;82.00;102298.97;7401969;19;20360;-76
2023/12/18 05:04:59;;;;;;;11.90;8.10;;;;;;;6.68;81.83;102324.84;7400163;19;20364;-76
2023/12/18 05:07:27;;;;;;;10.63;8.15;;;;;;;6.69;82.65;102308.91;7398230;19;20781;-77
2023/12/18 05:09:53;;;;;;;12.18;8.38;;;;;;;6.64;82.97;102316.28;7400862;19;20449;-76
2023/12/18 05:12:21;;;;;;;12.48;8.50;;;;;;;6.60;83.53;102317.47;7401114;19;20348;-78
2023/12/18 05:14:48;;;;;;;12.55;8.45;;;;;;;6.61;84.04;102297.19;7401330;19;20360;-77
2023/12/18 05:17:15;;;;;;;16.02;9.68;;;;;;;6.61;84.25;102302.47;7397730;19;20352;-77
2023/12/18 05:19:42;;;;;;;15.52;9.32;;;;;;;6.61;84.54;102284.00;7399168;19;20381;-77
2023/12/18 05:22:09;;;;;;;14.55;9.50;;;;;;;6.62;84.80;102280.44;7396993;19;20344;-77
2023/12/18 05:24:35;;;;;;;12.50;9.17;;;;;;;6.58;85.25;102281.63;7398482;19;20316;-77
2023/12/18 05:27:03;;;;;;;14.48;10.07;;;;;;;6.62;85.47;102285.72;7398350;19;20397;-77
2023/12/18 05:29:30;;;;;;;13.43;9.50;;;;;;;6.63;85.49;102280.34;7397754;19;20860;-76
2023/12/18 05:31:56;;;;;;;14.50;9.52;;;;;;;6.58;85.76;102285.09;7401605;19;20389;-76
2023/12/18 05:34:23;;;;;;;14.30;9.60;;;;;;;6.56;85.96;102281.72;7400044;19;20356;-76
2023/12/18 05:36:54;;;;;;;12.52;9.15;;;;;;;6.58;86.22;102279.81;7398245;19;20428;-76
2023/12/18 05:39:21;;;;;;;16.02;9.77;;;;;;;6.56;86.42;102280.88;7400935;19;20360;-76
2023/12/18 05:41:47;;;;;;;13.90;8.98;;;;;;;6.57;86.42;102296.59;7399181;19;20365;-77
2023/12/18 05:44:14;;;;;;;16.38;10.90;;;;;;;6.64;86.68;102291.72;7402589;19;20361;-77
2023/12/18 05:46:41;;;;;;;16.27;10.30;;;;;;;6.64;86.34;102284.66;7400523;19;20379;-77
2023/12/18 05:49:07;;;;;;;15.13;10.27;;;;;;;6.64;86.29;102283.81;7399318;19;20386;-76
2023/12/18 05:51:34;;;;;;;14.15;9.85;;;;;;;6.67;86.06;102299.41;7397997;19;20345;-76
2023/12/18 05:54:01;;;;;;;16.15;9.93;;;;;;;6.70;86.04;102284.22;7401226;19;20347;-77
2023/12/18 05:56:28;;;;;;;13.85;10.13;;;;;;;6.73;86.11;102291.88;7399709;19;20373;-77
2023/12/18 05:58:57;;;;;;;12.77;9.55;;;;;;;6.74;86.10;102279.56;7401413;19;20357;-77
2023/12/18 06:01:24;;;;;;;15.18;9.93;;;;;;;6.75;86.19;102281.22;7397700;19;20360;-76
2023/12/18 06:03:51;;;;;;;16.17;10.32;;;;;;;6.78;86.24;102290.72;7400140;19;20370;-76
2023/12/18 06:06:18;;;;;;;16.70;9.48;;;;;;;6.81;86.14;102290.50;7397069;19;20360;-76
2023/12/18 06:08:45;;;;;;;13.38;9.27;;;;;;;6.83;86.27;102296.50;7396173;19;20361;-77
2023/12/18 06:11:12;;;;;;;11.75;8.70;;;;;;;6.77;86.51;102297.78;7397678;19;20389;-77
2023/12/18 06:13:39;;;;;;;14.57;9.18;;;;;;;6.75;87.11;102291.78;7400074;19;20353;-77
2023/12/18 06:16:06;;;;;;;14.07;8.60;;;;;;;6.75;87.24;102307.59;7399534;19;20479;-76
2023/12/18 06:18:34;;;;;;;13.90;9.50;;;;;;;6.80;87.37;102300.22;7398308;19;20379;-77
2023/12/18 06:21:03;;;;;;;12.15;9.35;;;;;;;6.78;87.46;102312.69;7397209;19;20856;-76
2023/12/18 06:23:30;;;;;;;12.50;8.93;;;;;;;6.78;87.83;102304.78;7395497;19;20375;-77
2023/12/18 06:25:57;;;;;;;11.55;8.82;;;;;;;6.73;88.20;102317.41;7396024;19;20888;-76
2023/12/18 06:28:28;;;;;;;13.32;8.77;;;;;;;6.77;88.33;102320.69;7398328;19;20682;-77
2023/12/18 06:30:55;;;;;;;13.45;9.02;;;;;;;6.81;88.20;102320.34;7395273;19;20344;-76
2023/12/18 06:33:22;;;;;;;11.75;9.23;;;;;;;6.78;88.45;102323.22;7399301;19;20700;-76
2023/12/18 06:35:49;;;;;;;14.90;9.80;;;;;;;6.85;88.26;102319.19;7399541;19;20481;-76
2023/12/18 06:38:16;;;;;;;14.52;9.23;;;;;;;6.81;88.35;102323.00;7398843;19;20359;-77
2023/12/18 06:40:43;;;;;;;17.35;9.25;;;;;;;6.80;88.55;102331.88;7396586;19;20360;-76
2023/12/18 06:43:09;;;;;;;11.50;8.63;;;;;;;6.82;88.46;102337.88;7396106;19;20497;-76
2023/12/18 06:45:36;;;;;;;15.63;10.05;;;;;;;6.87;88.42;102317.28;7398899;19;20375;-77
2023/12/18 06:48:04;;;;;;;12.23;8.57;;;;;;;6.87;88.34;102314.66;7398648;19;20345;-76
2023/12/18 06:50:32;;;;;;;12.02;9.52;;;;;;;6.88;88.54;102312.84;7398181;19;20382;-76
2023/12/18 06:53:00;;;;;;;13.05;9.30;;;;;;;6.88;88.51;102310.19;7396025;19;20372;-77
2023/12/18 06:55:27;;;;;;;17.80;9.82;;;;;;;6.92;88.29;102301.94;7397172;19;20703;-76
2023/12/18 06:57:54;;;;;;;13.45;9.05;;;;;;;6.85;88.31;102319.19;7395537;19;20359;-76
2023/12/18 07:00:21;;;;;;;13.55;9.55;;;;;;;6.92;88.15;102319.59;7399517;19;20360;-77
2023/12/18 07:03:06;;;;;;;13.35;9.15;;;;;;;6.90;88.54;102326.75;7396610;19;20710;-77
2023/12/18 07:05:33;;;;;;;12.55;8.88;;;;;;;6.84;88.57;102317.50;7396905;19;20361;-77
2023/12/18 07:08:00;;;;;;;13.50;8.98;;;;;;;6.89;88.53;102319.81;7394937;19;20367;-77
2023/12/18 07:10:27;;;;;;;12.35;9.15;;;;;;;6.88;88.73;102320.75;7396523;19;20837;-76
2023/12/18 07:12:54;;;;;;;12.00;8.90;;;;;;;6.93;88.60;102322.13;7397279;19;20368;-77
2023/12/18 07:15:23;;;;;;;12.85;9.35;;;;;;;6.93;88.55;102332.66;7394363;19;20423;-78
2023/12/18 07:17:52;;;;;;;12.43;9.10;;;;;;;6.93;88.64;102311.56;7397467;19;20876;-77
2023/12/18 07:20:19;;;;;;;12.50;9.25;;;;;;;6.94;88.31;102323.78;7396009;19;20375;-76
2023/12/18 07:22:46;;;;;;;13.48;9.20;;;;;;;6.91;88.74;102320.56;7393731;19;20389;-77
2023/12/18 07:25:12;;;;;;;13.30;9.37;;;;;;;6.96;88.41;102315.78;7395509;19;20967;-77
2023/12/18 07:27:39;;;;;;;14.55;9.48;;;;;;;6.94;88.31;102305.31;7398312;19;20861;-76
2023/12/18 07:30:06;;;;;;;16.55;9.50;;;;;;;6.93;88.50;102316.84;7397044;19;20341;-76
2023/12/18 07:32:33;;;;;;;12.38;9.40;;;;;;;6.95;88.49;102319.38;7394230;19;20390;-77
2023/12/18 07:35:00;;;;;;;14.32;9.15;;;;;;;6.96;88.38;102321.03;7395335;19;20385;-77
2023/12/18 07:37:29;;;;;;;16.58;10.20;;;;;;;6.96;88.32;102326.31;7393103;19;20372;-76
2023/12/18 07:39:56;;;;;;;13.07;9.82;;;;;;;6.97;88.41;102313.97;7395507;19;20387;-76
2023/12/18 07:42:24;;;;;;;13.95;9.88;;;;;;;6.96;88.22;102323.69;7394464;19;20385;-77
2023/12/18 07:44:51;;;;;;;14.98;9.25;;;;;;;7.00;88.57;102326.94;7393169;19;20348;-77
2023/12/18 07:47:17;;;;;;;12.32;9.55;;;;;;;7.02;88.55;102335.59;7397948;19;20365;-77
2023/12/18 07:49:44;;;;;;;13.27;9.75;;;;;;;6.98;88.34;102326.22;7396778;19;20364;-78
2023/12/18 07:52:16;;;;;;;11.23;9.10;;;;;;;6.98;88.63;102334.13;7396158;19;20372;-78
2023/12/18 07:54:43;;;;;;;11.85;9.75;;;;;;;6.98;88.67;102337.59;7396531;19;20348;-78
2023/12/18 07:57:11;;;;;;;14.45;10.35;;;;;;;6.99;88.66;102335.81;7398403;19;20359;-79
2023/12/18 07:59:39;;;;;;;12.03;9.60;;;;;;;7.01;88.63;102328.63;7399376;19;20370;-78
2023/12/18 08:02:07;;;;;;;13.63;10.07;;;;;;;7.04;88.64;102328.41;7395519;19;20373;-78
2023/12/18 08:04:35;;;;;;;14.30;10.30;;;;;;;7.06;88.47;102326.50;7394334;19;20936;-78
2023/12/18 08:07:02;;;;;;;14.57;10.45;;;;;;;7.06;88.41;102337.91;7392322;19;20368;-78
2023/12/18 08:09:29;;;;;;;13.80;10.50;;;;;;;7.07;88.47;102333.47;7395184;19;20360;-78
2023/12/18 08:11:56;;;;;;;13.47;9.77;;;;;;;7.07;88.33;102334.28;7393365;19;20438;-78
2023/12/18 08:14:23;;;;;;;15.18;9.90;;;;;;;7.08;88.43;102320.16;7396474;19;20374;-78
2023/12/18 08:16:50;;;;;;;14.13;9.60;;;;;;;7.07;88.48;102322.91;7396124;19;20860;-78
2023/12/18 08:19:17;;;;;;;14.52;10.57;;;;;;;7.10;88.68;102317.41;7393979;19;20408;-78
2023/12/18 08:21:45;;;;;;;15.20;10.10;;;;;;;7.08;88.77;102319.31;7392480;19;20368;-77
2023/12/18 08:24:12;;;;;;;13.30;10.52;;;;;;;7.10;88.40;102317.41;7392726;19;20353;-78
2023/12/18 08:26:39;;;;;;;14.70;10.60;;;;;;;7.17;88.41;102308.09;7395272;19;20380;-78
2023/12/18 08:29:07;;;;;;;13.57;10.23;;;;;;;7.18;88.34;102306.28;7394774;19;20337;-77
2023/12/18 08:31:37;;;;;;;15.32;10.75;;;;;;;7.13;88.26;102311.91;7394394;19;20389;-78
2023/12/18 08:34:05;;;;;;;15.30;10.18;;;;;;;7.20;88.35;102302.56;7394106;19;20774;-78
2023/12/18 08:36:34;;;;;;;17.33;11.73;;;;;;;7.21;88.21;102296.34;7393949;19;20341;-77
2023/12/18 08:39:01;;;;;;;16.45;10.70;;;;;;;7.17;88.31;102297.53;7395970;19;20397;-78
2023/12/18 08:41:27;;;;;;;16.33;11.85;;;;;;;7.22;88.27;102305.94;7390812;19;20867;-79
2023/12/18 08:43:54;;;;;;;15.57;10.57;;;;;;;7.20;88.43;102307.84;7394054;19;20372;-79
2023/12/18 08:46:31;;;;;;;13.73;10.77;;;;;;;7.24;88.14;102319.88;7391801;19;20689;-78
2023/12/18 08:48:58;;;;;;;15.57;11.13;;;;;;;7.26;88.28;102307.41;7393827;19;20368;-77
2023/12/18 08:51:25;;;;;;;13.82;11.10;;;;;;;7.21;88.29;102301.63;7393944;19;20387;-78
2023/12/18 08:53:54;;;;;;;16.00;10.95;;;;;;;7.21;88.39;102298.16;7393406;19;20367;-78
2023/12/18 08:56:21;;;;;;;15.05;10.88;;;;;;;7.29;87.90;102296.63;7401152;19;20371;-81
2023/12/18 08:58:49;;;;;;;14.70;11.02;;;;;;;7.31;88.00;102291.22;7403657;19;20372;-81
2023/12/18 09:01:16;;;;;;;14.68;10.98;;;;;;;7.32;87.91;102301.66;7402347;19;20378;-80
2023/12/18 09:03:47;;;;;;;15.20;11.45;;;;;;;7.37;87.95;102282.00;7401579;19;20349;-81
2023/12/18 09:06:14;;;;;;;19.47;11.07;;;;;;;7.32;87.84;102275.25;7401217;19;20412;-81
2023/12/18 09:08:41;;;;;;;14.80;11.25;;;;;;;7.38;87.51;102294.25;7398544;19;21321;-81
2023/12/18 09:11:08;;;;;;;17.77;11.97;;;;;;;7.31;87.61;102289.44;7403209;19;20397;-81
2023/12/18 09:13:36;;;;;;;15.00;11.65;;;;;;;7.31;87.63;102286.78;7416386;19;20342;-81
2023/12/18 09:16:06;;;;;;;18.88;12.80;;;;;;;7.38;87.66;102283.69;7421584;19;20814;-81
2023/12/18 09:18:33;;;;;;;17.77;12.70;;;;;;;7.39;87.72;102282.72;7420953;19;20410;-81
2023/12/18 09:21:01;;;;;;;18.42;12.45;;;;;;;7.29;87.57;102286.06;7416168;19;20349;-82
2023/12/18 09:23:28;;;;;;;17.38;12.88;;;;;;;7.35;87.76;102276.81;7412274;19;20356;-82
2023/12/18 09:25:56;;;;;;;18.15;13.02;;;;;;;7.35;87.99;102280.34;7421175;19;20416;-82
2023/12/18 09:28:23;;;;;;;20.95;13.63;;;;;;;7.36;88.05;102281.16;7418953;19;20423;-82
2023/12/18 09:30:50;;;;;;;20.20;13.75;;;;;;;7.35;87.90;102275.06;7417778;19;20372;-80
2023/12/18 09:33:17;;;;;;;18.80;11.88;;;;;;;7.33;88.02;102276.97;7418490;19;20344;-79
2023/12/18 09:35:44;;;;;;;16.02;11.40;;;;;;;7.27;88.20;102266.84;7420032;19;20352;-80
2023/12/18 09:38:11;;;;;;;17.58;12.85;;;;;;;7.32;88.37;102271.78;7419208;19;20417;-80
2023/12/18 09:40:43;;;;;;;19.33;12.88;;;;;;;7.31;88.38;102284.16;7414763;19;20420;-80
2023/12/18 09:43:15;;;;;;;20.08;12.93;;;;;;;7.33;88.48;102282.25;7398247;19;20359;-80
2023/12/18 09:45:46;;;;;;;16.23;12.50;;;;;;;7.30;88.52;102279.81;7406858;19;20893;-79
2023/12/18 09:48:17;;;;;;;19.87;12.63;;;;;;;7.38;88.65;102273.97;7408831;19;20379;-80
2023/12/18 09:50:46;;;;;;;18.77;12.85;;;;;;;7.42;88.36;102270.16;7410018;19;20356;-82
2023/12/18 09:53:16;;;;;;;17.52;12.57;;;;;;;7.40;88.26;102284.44;7408525;19;20365;-82
2023/12/18 09:55:45;;;;;;;17.30;11.33;;;;;;;7.37;88.37;102269.63;7407115;19;20385;-81
2023/12/18 09:58:17;;;;;;;16.45;11.68;;;;;;;7.44;88.52;102267.38;7410597;19;20849;-81
2023/12/18 10:00:45;;;;;;;16.77;11.68;;;;;;;7.41;88.69;102254.41;7409851;19;20361;-81
2023/12/18 10:03:13;;;;;;;15.27;12.00;;;;;;;7.40;88.53;102265.94;7406998;19;20482;-81
2023/12/18 10:05:42;;;;;;;15.95;11.80;;;;;;;7.41;88.66;102271.09;7407825;19;20365;-81
2023/12/18 10:08:09;;;;;;;16.55;11.30;;;;;;;7.43;88.72;102270.97;7405725;19;20842;-81
2023/12/18 10:10:36;;;;;;;13.88;10.27;;;;;;;7.35;88.68;102285.63;7404087;19;20359;-81
2023/12/18 10:13:06;;;;;;;17.40;11.35;;;;;;;7.41;88.74;102264.97;7409609;19;20353;-80
2023/12/18 10:15:35;;;;;;;15.55;11.40;;;;;;;7.43;88.64;102260.41;7408136;19;20345;-79
2023/12/18 10:18:03;;;;;;;14.70;11.18;;;;;;;7.42;88.70;102258.75;7405761;19;20412;-80
2023/12/18 10:20:30;;;;;;;16.92;11.23;;;;;;;7.48;88.73;102242.41;7404994;19;20360;-81
2023/12/18 10:22:59;;;;;;;16.75;11.45;;;;;;;7.44;88.91;102244.47;7405216;19;20344;-81
2023/12/18 10:25:26;;;;;;;16.35;11.20;;;;;;;7.49;88.52;102238.84;7405481;19;20344;-81
2023/12/18 10:27:54;;;;;;;15.37;10.73;;;;;;;7.53;88.58;102235.00;7408711;19;20377;-81
2023/12/18 10:30:25;;;;;;;14.20;10.50;;;;;;;7.55;88.59;102233.09;7404557;19;20362;-81
2023/12/18 10:32:53;;;;;;;14.40;9.70;;;;;;;7.51;88.32;102239.56;7407554;19;20360;-81
2023/12/18 10:35:23;;;;;;;12.90;9.45;;;;;;;7.50;88.45;102246.66;7403684;19;20352;-80
2023/12/18 10:37:54;;;;;;;15.25;10.55;;;;;;;7.53;88.50;102235.00;7406902;19;20743;-81
2023/12/18 10:40:23;;;;;;;13.13;10.00;;;;;;;7.55;88.21;102233.09;7407802;19;20391;-81
2023/12/18 10:43:15;;;;;;;13.35;9.52;;;;;;;7.60;88.41;102236.22;7406135;19;20371;-80
2023/12/18 10:45:43;;;;;;;13.65;9.80;;;;;;;7.63;88.38;102241.28;7402689;19;20410;-81
2023/12/18 10:48:12;;;;;;;14.50;9.27;;;;;;;7.69;88.08;102224.97;7402773;19;20360;-82
2023/12/18 10:50:40;;;;;;;13.52;9.65;;;;;;;7.78;87.95;102223.41;7393940;19;20399;-81
2023/12/18 10:53:08;;;;;;;12.55;9.35;;;;;;;7.78;87.82;102220.75;7401317;19;20364;-80
2023/12/18 10:55:37;;;;;;;11.90;9.30;;;;;;;7.82;87.69;102219.56;7399837;19;20385;-82
2023/12/18 10:58:04;;;;;;;12.27;8.18;;;;;;;7.92;87.58;102217.03;7396464;19;20369;-81
2023/12/18 11:00:32;;;;;;;12.48;8.73;;;;;;;7.92;87.37;102215.22;7406675;19;20360;-81
2023/12/18 11:03:01;;;;;;;13.43;9.00;;;;;;;7.99;86.90;102205.03;7405134;19;20381;-79
2023/12/18 11:05:29;;;;;;;12.77;8.15;;;;;;;8.01;86.85;102197.81;7405547;19;20458;-80
2023/12/18 11:07:57;;;;;;;12.88;9.00;;;;;;;8.11;86.85;102192.63;7405727;19;20377;-82
2023/12/18 11:10:25;;;;;;;10.60;8.00;;;;;;;8.21;86.74;102198.03;7405531;19;20894;-80
2023/12/18 11:13:01;;;;;;;11.77;8.05;;;;;;;8.25;86.32;102200.31;7402853;19;20349;-79
2023/12/18 11:15:56;;;;;;;10.65;7.82;;;;;;;8.25;86.05;102202.13;7397779;19;20398;-80
2023/12/18 11:18:51;;;;;;;9.30;7.28;;;;;;;8.31;86.01;102193.72;7402982;19;20431;-80
2023/12/18 11:21:18;;;;;;;11.55;7.32;;;;;;;8.28;85.86;102207.16;7402140;19;20403;-80
2023/12/18 11:23:50;;;;;;;9.30;7.55;;;;;;;8.29;86.22;102206.22;7401101;19;20369;-80
2023/12/18 11:26:31;;;;;;;9.50;7.18;;;;;;;8.31;86.14;102199.00;7403892;19;20415;-80